Time;durP1;ratioP1;P1;durP2;ratioP2;P2;SDS_P1;SDS_P2;PMS_P1;PMS_P2;Temp;Humidity;BMP_temperature;BMP_pressure;BME280_temperature;BME280_humidity;BME280_pressure;Samples;Min_cycle;Max_cycle;Signal;HPM_P1;HPM_P2
2022/07/31 00:01:17;;;;;;;5.03;3.97;;;;;;;22.38;60.08;98655.53;5074230;28;20040;-92
2022/07/31 00:03:43;;;;;;;6.45;4.28;;;;;;;22.44;60.19;98664.03;5074096;28;20028;-91
2022/07/31 00:06:09;;;;;;;5.60;4.13;;;;;;;22.35;60.02;98651.22;5074807;28;20094;-92
2022/07/31 00:08:35;;;;;;;5.43;4.30;;;;;;;22.35;60.17;98662.91;5075231;28;20044;-92
2022/07/31 00:11:00;;;;;;;5.55;4.30;;;;;;;22.12;60.45;98653.84;5074993;28;20501;-92
2022/07/31 00:13:26;;;;;;;7.40;4.05;;;;;;;22.12;61.10;98661.97;5074793;28;20045;-91
2022/07/31 00:15:53;;;;;;;5.78;4.05;;;;;;;21.97;61.41;98651.41;5074344;28;20036;-92
2022/07/31 00:18:19;;;;;;;6.13;4.05;;;;;;;21.97;61.72;98668.53;5074578;28;20050;-92
2022/07/31 00:20:45;;;;;;;9.55;4.13;;;;;;;21.83;62.16;98672.28;5074915;28;20066;-91
2022/07/31 00:23:10;;;;;;;5.82;4.38;;;;;;;21.61;62.46;98656.78;5074342;28;20033;-92
2022/07/31 00:25:36;;;;;;;5.47;3.95;;;;;;;21.68;62.29;98657.19;5075208;28;20493;-94
2022/07/31 00:28:03;;;;;;;5.40;4.10;;;;;;;21.56;62.14;98634.63;5074005;28;20056;-91
2022/07/31 00:30:29;;;;;;;5.00;3.83;;;;;;;21.80;61.74;98658.13;5074174;28;20047;-92
2022/07/31 00:32:56;;;;;;;6.03;4.20;;;;;;;21.98;60.38;98661.28;5074708;28;20036;-92
2022/07/31 00:35:22;;;;;;;5.68;3.72;;;;;;;21.98;59.20;98643.19;5073897;28;20042;-93
2022/07/31 00:37:47;;;;;;;4.95;3.38;;;;;;;22.01;59.65;98642.06;5074963;28;20032;-92
2022/07/31 00:40:15;;;;;;;5.03;3.80;;;;;;;22.12;60.28;98663.78;5074095;28;20064;-91
2022/07/31 00:42:41;;;;;;;5.18;3.95;;;;;;;22.04;60.62;98658.09;5074501;28;20040;-91
2022/07/31 00:45:07;;;;;;;6.22;3.90;;;;;;;21.86;60.99;98647.69;5073625;28;20120;-90
2022/07/31 00:47:34;;;;;;;5.60;4.03;;;;;;;21.81;61.30;98651.72;5073687;28;20577;-92
2022/07/31 00:50:02;;;;;;;5.05;3.85;;;;;;;21.56;61.70;98649.97;5073996;28;20037;-91
2022/07/31 00:52:27;;;;;;;5.57;3.72;;;;;;;21.36;62.02;98625.25;5073989;28;20036;-91
2022/07/31 00:54:53;;;;;;;4.95;3.90;;;;;;;21.33;62.13;98629.00;5075072;28;20044;-93
2022/07/31 00:57:19;;;;;;;6.03;4.25;;;;;;;21.26;62.54;98633.16;5075185;28;20170;-91
2022/07/31 00:59:45;;;;;;;5.85;3.75;;;;;;;21.20;63.01;98647.13;5073387;28;20040;-89
2022/07/31 01:02:11;;;;;;;4.57;3.63;;;;;;;21.23;63.27;98660.44;5073427;28;20119;-91
2022/07/31 01:04:37;;;;;;;5.75;4.35;;;;;;;21.07;64.32;98647.13;5073867;28;20127;-90
2022/07/31 01:07:05;;;;;;;4.80;3.85;;;;;;;20.98;64.52;98644.25;5071390;28;20040;-89
2022/07/31 01:09:30;;;;;;;5.43;4.13;;;;;;;21.02;65.07;98654.72;5073538;28;20051;-91
2022/07/31 01:12:04;;;;;;;5.80;4.43;;;;;;;20.85;65.30;98637.00;5072740;28;20037;-88
2022/07/31 01:14:35;;;;;;;6.40;4.40;;;;;;;20.73;65.53;98627.06;5072151;28;20060;-91
2022/07/31 01:17:05;;;;;;;7.07;4.22;;;;;;;20.75;65.65;98635.06;5073137;28;20044;-93
2022/07/31 01:19:34;;;;;;;7.70;4.55;;;;;;;20.56;67.00;98630.06;5073071;28;20052;-90
2022/07/31 01:22:16;;;;;;;6.68;4.40;;;;;;;20.65;66.82;98642.97;5073025;28;20054;-92
2022/07/31 01:24:56;;;;;;;7.88;4.38;;;;;;;20.64;66.17;98627.72;5071019;28;20093;-90
2022/07/31 01:27:31;;;;;;;5.57;4.05;;;;;;;20.79;65.52;98636.59;5072522;28;20056;-92
2022/07/31 01:30:01;;;;;;;5.60;4.10;;;;;;;20.75;64.66;98619.72;5071825;28;20044;-91
2022/07/31 01:32:31;;;;;;;5.50;3.80;;;;;;;20.88;65.06;98630.50;5073951;28;20074;-92
2022/07/31 01:35:01;;;;;;;6.78;3.67;;;;;;;20.95;64.48;98637.22;5073365;28;20033;-90
2022/07/31 01:37:33;;;;;;;4.60;3.50;;;;;;;20.96;62.26;98622.72;5073385;28;20040;-91
2022/07/31 01:40:02;;;;;;;4.43;3.60;;;;;;;20.94;63.87;98611.16;5073712;28;20048;-92
2022/07/31 01:42:29;;;;;;;5.15;3.70;;;;;;;21.05;64.34;98634.72;5073117;28;20617;-91
2022/07/31 01:45:00;;;;;;;5.22;3.90;;;;;;;20.97;64.74;98634.38;5072253;28;20104;-92
2022/07/31 01:47:27;;;;;;;4.80;3.58;;;;;;;20.79;64.20;98618.53;5073473;28;20044;-91
2022/07/31 01:49:54;;;;;;;5.33;4.03;;;;;;;20.75;64.64;98619.72;5073323;28;20045;-91
2022/07/31 01:52:24;;;;;;;6.15;4.10;;;;;;;20.69;63.30;98612.94;5072712;28;20052;-91
2022/07/31 01:54:52;;;;;;;5.70;3.60;;;;;;;20.96;62.79;98624.56;5073394;28;20048;-92
2022/07/31 01:57:18;;;;;;;5.30;3.90;;;;;;;20.92;62.33;98610.41;5073282;28;20144;-93
2022/07/31 01:59:46;;;;;;;5.63;3.67;;;;;;;21.25;60.70;98630.56;5071508;28;20041;-91
2022/07/31 02:02:15;;;;;;;6.10;3.80;;;;;;;21.37;60.41;98629.66;5073790;28;20115;-91
2022/07/31 02:04:41;;;;;;;;;;;;;;;21.50;60.23;98635.06;5073198;28;20032;-91
2022/07/31 02:07:07;;;;;;;4.70;3.30;;;;;;;21.46;59.39;98610.06;5072953;28;19920;-90
2022/07/31 02:09:34;;;;;;;4.72;3.30;;;;;;;21.68;58.27;98617.44;5072955;28;20036;-91
2022/07/31 02:12:03;;;;;;;4.72;3.22;;;;;;;21.85;57.00;98616.16;5073043;28;20067;-91
2022/07/31 02:14:30;;;;;;;5.60;3.40;;;;;;;21.99;56.64;98615.13;5073554;28;20049;-90
2022/07/31 02:16:58;;;;;;;5.80;3.10;;;;;;;21.96;56.34;98612.66;5072377;28;20040;-91
2022/07/31 02:19:27;;;;;;;4.97;3.33;;;;;;;22.00;55.98;98624.97;5072756;28;20436;-92
2022/07/31 02:21:52;;;;;;;;;;;;;;;22.03;55.60;98623.88;5073125;28;20056;-94
2022/07/31 02:24:18;;;;;;;4.38;3.20;;;;;;;22.02;55.41;98620.31;5073415;28;19947;-91
2022/07/31 02:26:46;;;;;;;4.97;3.10;;;;;;;22.03;55.00;98619.31;5076817;28;20511;-91
2022/07/31 02:29:13;;;;;;;4.50;3.22;;;;;;;21.95;54.76;98600.09;5073850;28;20040;-90
2022/07/31 02:31:43;;;;;;;5.25;3.53;;;;;;;22.09;54.54;98626.97;5076914;28;20063;-92
2022/07/31 02:34:09;;;;;;;5.57;3.10;;;;;;;22.03;54.75;98608.47;5074067;28;20550;-90
2022/07/31 02:36:37;;;;;;;6.13;3.47;;;;;;;21.95;55.01;98619.06;5076627;28;20090;-92
2022/07/31 02:39:04;;;;;;;4.30;2.97;;;;;;;21.85;55.57;98604.50;5076251;28;20052;-91
2022/07/31 02:41:30;;;;;;;4.85;3.50;;;;;;;21.98;54.77;98624.22;5076956;28;20032;-93
2022/07/31 02:43:59;;;;;;;7.22;3.60;;;;;;;21.88;54.59;98602.41;5076693;28;20501;-92
2022/07/31 02:46:26;;;;;;;4.32;3.25;;;;;;;22.00;54.36;98624.97;5076415;28;20071;-90
2022/07/31 02:48:53;;;;;;;4.10;2.97;;;;;;;22.07;54.15;98623.50;5076745;28;20040;-91
2022/07/31 02:51:20;;;;;;;4.30;3.40;;;;;;;22.02;53.62;98616.75;5076435;28;20588;-92
2022/07/31 02:53:47;;;;;;;3.90;2.80;;;;;;;22.01;53.68;98599.66;5075900;28;20035;-90
2022/07/31 02:56:15;;;;;;;4.55;3.30;;;;;;;22.09;53.19;98615.28;5075300;28;20044;-92
2022/07/31 02:58:40;;;;;;;4.80;3.17;;;;;;;22.00;52.64;98591.63;5076292;28;20101;-91
2022/07/31 03:01:08;;;;;;;3.83;2.95;;;;;;;22.06;53.06;98608.25;5076061;28;20044;-92
2022/07/31 03:03:34;;;;;;;5.45;2.83;;;;;;;22.03;52.94;98607.63;5075552;28;20115;-91
2022/07/31 03:06:00;;;;;;;5.28;2.95;;;;;;;21.93;52.87;98602.91;5074940;28;20450;-92
2022/07/31 03:08:26;;;;;;;4.15;3.10;;;;;;;21.94;53.10;98612.75;5075432;28;20040;-93
2022/07/31 03:10:53;;;;;;;6.18;3.30;;;;;;;21.88;54.31;98615.06;5075641;28;20052;-92
2022/07/31 03:13:21;;;;;;;4.00;2.90;;;;;;;21.80;55.13;98620.22;5076110;28;20028;-93
2022/07/31 03:15:48;;;;;;;4.30;2.90;;;;;;;21.79;53.66;98626.59;5076850;28;20036;-92
2022/07/31 03:18:15;;;;;;;4.18;3.10;;;;;;;21.66;55.38;98619.41;5075074;28;20552;-94
2022/07/31 03:20:41;;;;;;;5.13;3.30;;;;;;;21.60;54.71;98616.28;5075503;28;20056;-91
2022/07/31 03:23:08;;;;;;;5.10;3.10;;;;;;;21.53;55.06;98611.38;5075412;28;20127;-91
2022/07/31 03:25:35;;;;;;;4.60;3.10;;;;;;;21.57;55.88;98625.50;5075829;28;20040;-92
2022/07/31 03:28:02;;;;;;;4.68;3.10;;;;;;;21.50;54.10;98611.56;5075078;28;20040;-91
2022/07/31 03:30:28;;;;;;;3.75;3.00;;;;;;;21.62;54.52;98627.84;5075259;28;20071;-92
2022/07/31 03:32:55;;;;;;;5.25;3.53;;;;;;;21.58;55.94;98639.88;5076409;28;20032;-94
2022/07/31 03:35:21;;;;;;;6.10;4.60;;;;;;;21.38;61.07;98627.81;5076587;28;20064;-93
2022/07/31 03:37:47;;;;;;;5.28;4.57;;;;;;;21.19;62.85;98647.22;5077267;28;20041;-92
2022/07/31 03:40:13;;;;;;;6.50;4.80;;;;;;;20.87;63.69;98620.69;5075438;28;20055;-92
2022/07/31 03:42:39;;;;;;;5.57;4.53;;;;;;;20.75;64.96;98643.16;5075900;28;20541;-92
2022/07/31 03:45:09;;;;;;;6.07;4.70;;;;;;;20.53;65.49;98634.69;5076064;28;20555;-92
2022/07/31 03:47:36;;;;;;;6.28;5.13;;;;;;;20.32;66.89;98636.22;5074323;28;20477;-92
2022/07/31 03:50:02;;;;;;;7.30;5.05;;;;;;;20.15;67.26;98629.28;5075553;28;20423;-91
2022/07/31 03:52:29;;;;;;;7.15;4.85;;;;;;;19.88;68.67;98626.59;5075105;28;20362;-93
2022/07/31 03:54:55;;;;;;;6.75;4.93;;;;;;;19.73;68.67;98623.09;5073537;28;20032;-92
2022/07/31 03:57:22;;;;;;;7.43;5.10;;;;;;;19.74;69.28;98641.03;5077640;28;20041;-91
2022/07/31 03:59:49;;;;;;;6.82;4.90;;;;;;;19.61;69.37;98648.19;5074554;28;20128;-93
2022/07/31 04:02:16;;;;;;;6.75;4.60;;;;;;;19.44;69.85;98641.19;5069603;28;20108;-92
2022/07/31 04:04:43;;;;;;;12.38;4.80;;;;;;;19.26;70.41;98633.34;5074221;28;20064;-91
2022/07/31 04:07:09;;;;;;;7.97;4.95;;;;;;;19.06;71.10;98621.16;5074662;28;20041;-91
2022/07/31 04:09:35;;;;;;;5.88;4.07;;;;;;;19.07;71.10;98625.56;5073955;28;20044;-90
2022/07/31 04:12:01;;;;;;;7.88;4.65;;;;;;;19.11;71.12;98642.41;5074300;28;20393;-92
2022/07/31 04:14:27;;;;;;;7.93;4.70;;;;;;;19.05;70.58;98623.94;5073584;28;20033;-91
2022/07/31 04:16:52;;;;;;;6.63;4.63;;;;;;;19.16;71.42;98650.22;5074488;28;20127;-91
2022/07/31 04:19:20;;;;;;;6.00;4.65;;;;;;;19.11;71.68;98646.94;5074316;28;20050;-90
2022/07/31 04:21:45;;;;;;;5.47;4.18;;;;;;;19.01;71.21;98643.97;5073387;28;20165;-91
2022/07/31 04:24:15;;;;;;;7.53;4.45;;;;;;;18.99;71.88;98649.44;5074415;28;20074;-91
2022/07/31 04:26:42;;;;;;;6.25;4.28;;;;;;;18.99;72.12;98652.13;5074500;28;20370;-92
2022/07/31 04:29:07;;;;;;;7.00;4.57;;;;;;;18.91;72.67;98649.09;5074222;28;20150;-92
2022/07/31 04:31:33;;;;;;;6.85;4.47;;;;;;;18.95;72.54;98653.28;5074310;28;20076;-92
2022/07/31 04:33:59;;;;;;;5.95;4.45;;;;;;;18.84;73.70;98653.09;5073781;28;20430;-93
2022/07/31 04:36:26;;;;;;;7.15;4.53;;;;;;;18.91;72.92;98659.88;5073062;28;20120;-91
2022/07/31 04:38:52;;;;;;;5.47;4.32;;;;;;;18.84;72.68;98645.03;5074167;28;20057;-92
2022/07/31 04:41:17;;;;;;;6.85;4.75;;;;;;;18.90;72.85;98658.13;5073865;28;20122;-92
2022/07/31 04:43:43;;;;;;;7.20;4.35;;;;;;;18.97;73.15;98666.69;5074011;28;20037;-92
2022/07/31 04:46:09;;;;;;;6.35;4.38;;;;;;;18.96;73.81;98663.13;5073208;28;20123;-89
2022/07/31 04:48:35;;;;;;;6.40;4.68;;;;;;;18.94;73.65;98662.34;5073606;28;20508;-92
2022/07/31 04:51:01;;;;;;;8.50;4.85;;;;;;;18.92;73.85;98660.72;5074024;28;20403;-91
2022/07/31 04:53:28;;;;;;;7.85;4.50;;;;;;;18.97;74.43;98661.28;5074138;28;20075;-90
2022/07/31 04:58:53;;;;;;;6.40;4.53;;;;;;;19.04;75.00;98660.81;5131521;27;21143;-92
2022/07/31 05:01:19;;;;;;;6.65;4.68;;;;;;;19.06;74.97;98658.00;5131635;28;20126;-93
2022/07/31 05:03:45;;;;;;;7.85;4.50;;;;;;;19.11;74.24;98653.19;5131633;28;20070;-92
2022/07/31 05:06:11;;;;;;;9.07;4.68;;;;;;;19.15;74.83;98649.34;5132095;28;20076;-93
2022/07/31 05:08:37;;;;;;;5.68;4.25;;;;;;;19.26;71.59;98643.28;5131624;28;20094;-92
2022/07/31 05:14:04;;;;;;;5.18;3.85;;;;;;;20.45;65.91;98634.41;5070456;27;20376;-92
2022/07/31 05:16:31;;;;;;;5.45;3.80;;;;;;;21.01;63.55;98630.50;5070713;28;20049;-93
2022/07/31 05:18:57;;;;;;;5.88;3.92;;;;;;;21.48;61.47;98634.31;5070320;28;20146;-91
2022/07/31 05:21:25;;;;;;;6.25;3.47;;;;;;;21.81;58.77;98628.22;5070545;28;20039;-89
2022/07/31 05:23:52;;;;;;;6.10;3.47;;;;;;;22.23;57.20;98628.66;5069427;28;20049;-92
2022/07/31 05:26:18;;;;;;;4.47;3.47;;;;;;;22.49;55.78;98629.34;5069733;28;20520;-92
2022/07/31 05:28:45;;;;;;;6.10;3.58;;;;;;;22.66;54.58;98632.56;5070188;28;20059;-92
2022/07/31 05:31:12;;;;;;;5.00;3.50;;;;;;;22.77;54.91;98613.63;5071808;28;20087;-94
2022/07/31 05:33:38;;;;;;;4.47;3.15;;;;;;;22.98;53.34;98624.56;5071178;28;20033;-91
2022/07/31 05:36:05;;;;;;;6.43;3.47;;;;;;;23.27;53.36;98626.78;5070080;28;20452;-89
2022/07/31 05:38:31;;;;;;;4.55;3.53;;;;;;;23.35;51.86;98618.91;5070230;28;20409;-91
2022/07/31 05:40:57;;;;;;;4.82;3.13;;;;;;;23.58;50.77;98626.00;5069752;28;20048;-91
2022/07/31 05:43:23;;;;;;;4.88;3.30;;;;;;;23.73;50.01;98633.88;5070498;28;20115;-93
2022/07/31 05:45:48;;;;;;;4.60;3.05;;;;;;;23.61;50.29;98634.88;5070034;28;20041;-92
2022/07/31 05:48:16;;;;;;;4.03;3.17;;;;;;;23.86;50.33;98648.19;5070193;28;20037;-91
2022/07/31 05:50:43;;;;;;;5.47;3.05;;;;;;;23.64;50.43;98640.03;5069653;28;20506;-92
2022/07/31 05:53:11;;;;;;;4.60;2.95;;;;;;;23.83;49.58;98642.13;5069503;28;20044;-93
2022/07/31 05:55:38;;;;;;;3.85;3.05;;;;;;;23.96;48.60;98629.25;5069751;28;20041;-91
2022/07/31 05:58:04;;;;;;;3.97;3.17;;;;;;;24.10;48.41;98631.66;5069553;28;20044;-91
2022/07/31 06:00:30;;;;;;;4.20;2.88;;;;;;;24.09;46.50;98607.34;5070385;28;20041;-91
2022/07/31 06:02:55;;;;;;;4.07;3.20;;;;;;;23.96;47.65;98642.81;5069610;28;20059;-91
2022/07/31 06:05:22;;;;;;;4.35;2.92;;;;;;;24.21;47.54;98625.31;5070868;28;20069;-92
2022/07/31 06:07:50;;;;;;;4.78;2.90;;;;;;;24.08;47.85;98624.63;5069458;28;20036;-90
2022/07/31 06:10:16;;;;;;;4.00;3.10;;;;;;;24.30;48.31;98632.66;5070367;28;20053;-94
2022/07/31 06:12:42;;;;;;;4.47;3.20;;;;;;;24.56;47.84;98646.75;5071484;28;20417;-94
2022/07/31 06:15:08;;;;;;;4.93;2.80;;;;;;;24.85;47.16;98642.47;5071451;28;20091;-94
2022/07/31 06:17:34;;;;;;;5.78;3.20;;;;;;;25.02;46.17;98644.56;5071363;28;20060;-93
2022/07/31 06:19:59;;;;;;;5.72;3.38;;;;;;;25.17;46.57;98643.22;5070387;28;20047;-92
2022/07/31 06:22:27;;;;;;;7.32;3.38;;;;;;;25.36;46.91;98656.06;5070173;28;20091;-94
2022/07/31 06:24:52;;;;;;;10.43;3.55;;;;;;;25.41;46.43;98625.69;5059113;28;20045;-92
2022/07/31 06:27:18;;;;;;;5.05;3.40;;;;;;;25.53;46.26;98635.47;5057941;28;20149;-93
2022/07/31 06:29:44;;;;;;;6.13;3.55;;;;;;;25.59;46.18;98642.22;5057964;28;20083;-94
2022/07/31 06:32:10;;;;;;;5.65;3.10;;;;;;;25.60;45.59;98641.22;5057174;28;20040;-93
2022/07/31 06:34:35;;;;;;;3.85;3.00;;;;;;;25.54;43.66;98633.63;5056194;28;20033;-94
2022/07/31 06:37:01;;;;;;;3.40;2.75;;;;;;;25.65;43.84;98629.91;5057577;28;20037;-90
2022/07/31 06:39:28;;;;;;;3.85;2.70;;;;;;;25.39;42.53;98617.69;5055882;28;20064;-91
2022/07/31 06:41:54;;;;;;;3.70;2.80;;;;;;;25.57;40.58;98638.81;5056571;28;20037;-92
2022/07/31 06:44:20;;;;;;;3.75;2.80;;;;;;;25.43;42.06;98642.75;5055949;28;20045;-92
2022/07/31 06:46:46;;;;;;;4.47;3.05;;;;;;;25.38;41.28;98634.16;5055709;28;20043;-93
2022/07/31 06:49:12;;;;;;;4.35;2.83;;;;;;;25.46;40.97;98642.50;5056772;28;20526;-91
2022/07/31 06:51:38;;;;;;;3.85;2.85;;;;;;;25.35;41.33;98651.63;5055732;28;20071;-91
2022/07/31 06:54:06;;;;;;;3.47;2.72;;;;;;;25.60;41.01;98649.41;5055839;28;20402;-92
2022/07/31 06:56:34;;;;;;;3.78;2.88;;;;;;;25.82;39.95;98645.56;5054644;28;20057;-92
2022/07/31 06:59:01;;;;;;;;;;;;;;;25.74;39.46;98650.84;5055242;28;20041;-92
2022/07/31 07:01:27;;;;;;;3.33;2.50;;;;;;;25.74;39.84;98632.66;5055632;28;19944;-92
2022/07/31 07:03:53;;;;;;;3.22;2.58;;;;;;;25.79;39.88;98640.41;5055071;28;20393;-91
2022/07/31 07:06:19;;;;;;;3.63;2.55;;;;;;;26.14;40.47;98639.03;5055471;28;20033;-91
2022/07/31 07:08:44;;;;;;;4.10;2.80;;;;;;;26.08;38.44;98636.88;5055120;28;20498;-92
2022/07/31 07:11:10;;;;;;;3.75;2.83;;;;;;;26.11;39.25;98639.31;5055616;28;20044;-89
2022/07/31 07:13:37;;;;;;;3.60;2.90;;;;;;;26.23;39.05;98635.44;5054347;28;20049;-91
2022/07/31 07:16:03;;;;;;;4.10;2.83;;;;;;;26.61;39.54;98641.91;5055153;28;20079;-91
2022/07/31 07:18:29;;;;;;;5.75;3.00;;;;;;;26.35;39.19;98650.66;5055613;28;20037;-92
2022/07/31 07:20:55;;;;;;;3.33;2.70;;;;;;;26.06;39.93;98650.63;5056055;28;20068;-94
2022/07/31 07:23:21;;;;;;;4.22;3.00;;;;;;;26.11;40.00;98642.03;5055251;28;20057;-93
2022/07/31 07:25:47;;;;;;;3.53;2.90;;;;;;;26.29;40.23;98631.28;5055540;28;20516;-91
2022/07/31 07:28:14;;;;;;;4.05;2.90;;;;;;;26.46;39.40;98641.47;5055047;28;20098;-92
2022/07/31 07:30:41;;;;;;;5.10;2.90;;;;;;;26.62;39.25;98641.72;5054782;28;20123;-93
2022/07/31 07:33:07;;;;;;;4.05;3.00;;;;;;;26.66;39.98;98641.44;5055321;28;20538;-93
2022/07/31 07:35:33;;;;;;;4.05;2.78;;;;;;;27.00;38.43;98639.03;5054227;28;20033;-92
2022/07/31 07:37:59;;;;;;;5.35;2.80;;;;;;;26.97;38.73;98628.44;5053793;28;20041;-93
2022/07/31 07:40:25;;;;;;;4.53;3.10;;;;;;;26.91;38.24;98635.31;5055348;28;20037;-89
2022/07/31 07:42:51;;;;;;;5.38;3.05;;;;;;;26.86;37.25;98628.63;5052732;28;20072;-92
2022/07/31 07:45:17;;;;;;;5.10;2.80;;;;;;;27.23;36.57;98637.69;5055237;28;20494;-92
2022/07/31 07:47:44;;;;;;;4.70;2.90;;;;;;;27.41;36.78;98623.22;5054017;28;20041;-93
2022/07/31 07:50:11;;;;;;;5.20;2.80;;;;;;;27.71;34.95;98629.38;5055864;28;20067;-94
2022/07/31 07:52:37;;;;;;;3.92;2.70;;;;;;;27.65;35.70;98639.03;5055171;28;20399;-90
2022/07/31 07:55:05;;;;;;;4.07;2.85;;;;;;;27.80;35.02;98634.78;5054243;28;20091;-93
2022/07/31 07:57:31;;;;;;;5.53;3.20;;;;;;;27.82;35.45;98635.50;5051962;28;20041;-91
2022/07/31 07:59:58;;;;;;;5.40;3.00;;;;;;;28.25;34.85;98630.28;5053909;28;20033;-89
2022/07/31 08:02:24;;;;;;;3.50;2.50;;;;;;;28.23;33.71;98604.97;5053584;28;20047;-88
2022/07/31 08:04:51;;;;;;;4.05;2.80;;;;;;;28.36;33.57;98624.56;5053638;28;20036;-91
2022/07/31 08:07:26;;;;;;;3.58;2.50;;;;;;;28.37;33.40;98623.56;5053896;28;20461;-91
2022/07/31 08:09:52;;;;;;;3.50;2.60;;;;;;;28.70;31.23;98620.25;5053564;28;20078;-90
2022/07/31 08:12:18;;;;;;;3.00;2.47;;;;;;;28.72;29.58;98623.69;5053382;28;20064;-92
2022/07/31 08:14:43;;;;;;;4.38;2.60;;;;;;;28.69;30.43;98627.56;5052867;28;20037;-90
2022/07/31 08:17:11;;;;;;;4.45;2.40;;;;;;;29.06;29.71;98637.38;5053891;28;20060;-91
2022/07/31 08:19:36;;;;;;;4.85;2.58;;;;;;;29.28;28.87;98622.31;5054399;28;20071;-92
2022/07/31 08:22:04;;;;;;;4.03;2.60;;;;;;;29.51;28.93;98619.81;5052062;28;20060;-90
2022/07/31 08:24:29;;;;;;;4.63;2.58;;;;;;;29.61;27.73;98623.28;5054022;28;20044;-89
2022/07/31 08:29:56;;;;;;;3.17;2.45;;;;;;;30.36;28.54;98627.06;5123047;27;20436;-92
2022/07/31 08:32:24;;;;;;;4.03;2.40;;;;;;;30.40;28.63;98640.25;5091281;28;20083;-93
2022/07/31 08:34:50;;;;;;;3.40;2.43;;;;;;;30.32;27.46;98626.56;5090780;28;20055;-91
2022/07/31 08:37:19;;;;;;;3.13;2.28;;;;;;;30.16;27.66;98645.69;5090307;28;20269;-90
2022/07/31 08:39:46;;;;;;;3.05;2.40;;;;;;;29.59;27.84;98643.66;5090174;28;20087;-92
2022/07/31 08:42:13;;;;;;;3.83;2.50;;;;;;;29.82;27.36;98643.91;5091056;28;20036;-91
2022/07/31 08:44:41;;;;;;;3.28;2.47;;;;;;;30.10;27.67;98639.88;5090928;28;20408;-92
2022/07/31 08:47:09;;;;;;;4.00;2.80;;;;;;;30.36;27.60;98643.50;5090780;28;20039;-91
2022/07/31 08:49:41;;;;;;;3.00;2.38;;;;;;;30.53;27.25;98628.75;5089766;28;20135;-92
2022/07/31 08:52:09;;;;;;;3.20;2.58;;;;;;;30.88;27.32;98634.91;5090219;28;20036;-93
2022/07/31 08:54:36;;;;;;;3.10;2.20;;;;;;;31.11;25.90;98643.28;5084748;28;20420;-91
2022/07/31 08:57:01;;;;;;;3.25;2.60;;;;;;;31.28;26.97;98636.69;5090870;28;20706;-92
2022/07/31 08:59:27;;;;;;;3.20;2.60;;;;;;;31.40;26.16;98636.31;5091234;28;20119;-93
2022/07/31 09:01:55;;;;;;;5.78;2.67;;;;;;;31.49;26.07;98627.06;5091066;28;20036;-92
2022/07/31 09:04:23;;;;;;;4.72;2.83;;;;;;;31.69;26.08;98636.56;5089857;28;20040;-92
2022/07/31 09:06:49;;;;;;;4.68;2.55;;;;;;;31.87;26.47;98638.19;5090335;28;20039;-92
2022/07/31 09:09:15;;;;;;;3.95;2.60;;;;;;;31.98;25.87;98643.28;5092882;28;20033;-93
2022/07/31 09:11:46;;;;;;;3.10;2.20;;;;;;;31.56;26.01;98621.69;5090346;28;20051;-94
2022/07/31 09:14:12;;;;;;;4.55;2.50;;;;;;;31.66;24.41;98627.81;5091830;28;20032;-93
2022/07/31 09:16:45;;;;;;;3.75;2.67;;;;;;;31.79;24.96;98624.47;5089588;28;20044;-93
2022/07/31 09:19:12;;;;;;;3.95;2.38;;;;;;;31.85;24.77;98637.50;5089399;28;20037;-91
2022/07/31 09:21:42;;;;;;;4.43;2.40;;;;;;;31.61;23.72;98642.09;5090452;28;20474;-93
2022/07/31 09:24:09;;;;;;;3.50;2.25;;;;;;;31.57;24.25;98637.97;5090244;28;20040;-92
2022/07/31 09:26:36;;;;;;;3.45;2.47;;;;;;;31.59;24.03;98624.91;5091888;28;20059;-93
2022/07/31 09:29:07;;;;;;;6.10;2.60;;;;;;;31.36;24.58;98618.47;5095826;28;20064;-93
2022/07/31 09:31:34;;;;;;;3.92;2.55;;;;;;;31.74;25.39;98622.25;5093321;28;20483;-92
2022/07/31 09:34:00;;;;;;;4.40;2.40;;;;;;;31.93;24.11;98626.44;5091110;28;20055;-89
2022/07/31 09:36:26;;;;;;;3.10;2.35;;;;;;;31.85;24.69;98623.75;5091480;28;20521;-92
2022/07/31 09:38:55;;;;;;;3.08;2.40;;;;;;;32.02;24.66;98622.63;5089939;28;20401;-93
2022/07/31 09:41:22;;;;;;;4.57;2.70;;;;;;;32.26;24.50;98623.50;5077370;28;20490;-92
2022/07/31 09:43:53;;;;;;;4.22;2.42;;;;;;;32.43;24.14;98619.56;5078501;28;20104;-93
2022/07/31 09:46:19;;;;;;;4.15;2.50;;;;;;;32.46;24.48;98615.59;5080257;28;20442;-91
2022/07/31 09:48:49;;;;;;;2.70;2.33;;;;;;;32.30;24.12;98633.09;5081967;28;20047;-93
2022/07/31 09:51:15;;;;;;;3.42;2.70;;;;;;;31.87;25.00;98605.19;5078031;28;20049;-93
2022/07/31 09:53:41;;;;;;;3.22;2.50;;;;;;;31.99;24.91;98614.75;5071490;28;20098;-93
2022/07/31 09:56:11;;;;;;;3.28;2.50;;;;;;;31.82;23.57;98629.63;5078697;28;20117;-93
2022/07/31 09:58:38;;;;;;;4.28;2.70;;;;;;;31.72;23.40;98607.84;5077402;28;20052;-92
2022/07/31 10:01:06;;;;;;;3.00;2.30;;;;;;;31.89;24.46;98614.09;5076898;28;20068;-92
2022/07/31 10:03:35;;;;;;;3.03;2.50;;;;;;;31.95;24.37;98605.13;5075814;28;20037;-92
2022/07/31 10:06:03;;;;;;;3.50;2.42;;;;;;;31.43;24.76;98598.38;5075148;28;20036;-90
2022/07/31 10:08:34;;;;;;;3.30;2.55;;;;;;;31.30;25.16;98620.06;5076843;28;20041;-91
2022/07/31 10:11:01;;;;;;;3.10;2.50;;;;;;;31.37;25.54;98612.81;5076514;28;20150;-93
2022/07/31 10:13:32;;;;;;;4.72;2.53;;;;;;;31.43;25.46;98595.63;5075587;28;20036;-92
2022/07/31 10:16:00;;;;;;;3.70;2.70;;;;;;;31.72;24.54;98594.09;5074977;28;20393;-92
2022/07/31 10:18:28;;;;;;;4.25;2.63;;;;;;;32.04;25.45;98593.06;5076280;28;20119;-91
2022/07/31 10:20:55;;;;;;;3.85;2.50;;;;;;;31.96;24.05;98586.72;5075691;28;20049;-92
2022/07/31 10:23:27;;;;;;;3.35;2.70;;;;;;;32.20;24.30;98582.97;5075797;28;20498;-91
2022/07/31 10:25:56;;;;;;;4.65;2.75;;;;;;;32.43;24.13;98586.53;5073380;28;20052;-90
2022/07/31 10:28:23;;;;;;;4.47;2.70;;;;;;;32.58;23.66;98588.50;5068839;28;20049;-93
2022/07/31 10:30:51;;;;;;;3.65;2.60;;;;;;;32.21;24.30;98590.19;5074683;28;20049;-91
2022/07/31 10:33:17;;;;;;;3.33;2.60;;;;;;;32.60;23.30;98589.19;5072782;28;20040;-91
2022/07/31 10:35:49;;;;;;;3.35;2.53;;;;;;;32.30;23.64;98583.56;5075360;28;20044;-91
2022/07/31 10:38:22;;;;;;;3.15;2.50;;;;;;;32.40;23.61;98561.28;5075785;28;20064;-92
2022/07/31 10:40:54;;;;;;;3.83;2.65;;;;;;;32.67;24.05;98576.38;5075226;28;20123;-91
2022/07/31 10:43:27;;;;;;;4.00;2.70;;;;;;;32.70;23.19;98581.47;5074709;28;20517;-92
2022/07/31 10:45:55;;;;;;;3.55;2.60;;;;;;;32.79;22.24;98585.00;5072650;28;20036;-90
2022/07/31 10:48:22;;;;;;;3.88;2.40;;;;;;;32.73;22.45;98581.13;5074834;28;20510;-91
2022/07/31 10:50:59;;;;;;;3.28;2.35;;;;;;;32.73;22.47;98567.38;5074619;28;20507;-91
2022/07/31 10:53:25;;;;;;;3.42;2.63;;;;;;;32.67;22.31;98582.72;5075420;28;20107;-93
2022/07/31 10:55:59;;;;;;;3.80;2.60;;;;;;;31.89;22.63;98584.69;5074847;28;20046;-92
2022/07/31 10:58:25;;;;;;;3.47;2.60;;;;;;;31.87;22.56;98589.53;5076429;28;20032;-91
2022/07/31 11:00:52;;;;;;;3.45;2.40;;;;;;;32.07;22.99;98581.66;5076570;28;20041;-93
2022/07/31 11:03:21;;;;;;;5.90;2.33;;;;;;;32.04;22.99;98584.81;5074517;28;20040;-93
2022/07/31 11:05:54;;;;;;;3.78;2.80;;;;;;;32.28;23.61;98585.66;5074228;28;20397;-92
2022/07/31 11:08:19;;;;;;;3.25;2.30;;;;;;;32.23;22.14;98574.34;5074721;28;20275;-91
2022/07/31 11:10:49;;;;;;;3.95;2.50;;;;;;;32.00;21.85;98572.44;5074972;28;20064;-92
2022/07/31 11:13:16;;;;;;;2.58;2.30;;;;;;;32.25;22.14;98569.50;5074647;28;20086;-91
2022/07/31 11:15:42;;;;;;;4.80;2.50;;;;;;;32.07;22.18;98567.91;5074570;28;20547;-93
2022/07/31 11:18:12;;;;;;;3.13;2.55;;;;;;;32.37;22.04;98570.75;5070632;28;20040;-94
2022/07/31 11:20:41;;;;;;;4.65;2.60;;;;;;;32.00;22.96;98586.19;5074772;28;20032;-91
2022/07/31 11:23:08;;;;;;;3.78;2.80;;;;;;;31.79;22.43;98575.81;5074263;28;20037;-92
2022/07/31 11:25:36;;;;;;;3.70;2.60;;;;;;;31.76;22.38;98578.94;5074215;28;20040;-89
2022/07/31 11:28:13;;;;;;;3.90;2.28;;;;;;;31.91;22.13;98565.28;5073900;28;20076;-91
2022/07/31 11:30:49;;;;;;;4.35;2.47;;;;;;;32.16;21.52;98545.84;5072539;28;20040;-91
2022/07/31 11:33:15;;;;;;;3.47;2.50;;;;;;;32.31;21.39;98557.75;5072231;28;20119;-91
2022/07/31 11:35:43;;;;;;;2.55;2.15;;;;;;;31.97;21.94;98552.66;5074435;28;20029;-92
2022/07/31 11:38:08;;;;;;;3.13;2.50;;;;;;;32.19;21.98;98540.84;5074322;28;20041;-92
2022/07/31 11:40:34;;;;;;;3.50;2.55;;;;;;;32.32;21.45;98534.72;5073269;28;20555;-92
2022/07/31 11:43:00;;;;;;;3.80;2.70;;;;;;;32.44;21.69;98557.13;5074075;28;20067;-91